createdAt,value
2023-05-23T00:04:03.137Z,97158.63
2023-05-23T00:08:08.451Z,97172.00
2023-05-23T00:12:12.485Z,97159.72
2023-05-23T00:16:16.982Z,97167.41
2023-05-23T00:20:21.291Z,97178.56
2023-05-23T00:24:26.287Z,97181.41
2023-05-23T00:28:29.224Z,97179.19
2023-05-23T00:32:32.631Z,97183.84
2023-05-23T00:36:38.353Z,97176.19
2023-05-23T00:40:43.097Z,97184.28
2023-05-23T00:44:48.639Z,97183.88
2023-05-23T00:48:52.120Z,97184.69
2023-05-23T00:52:55.193Z,97191.56
2023-05-23T00:56:59.991Z,97187.09
2023-05-23T01:01:03.391Z,97182.88
2023-05-23T01:05:08.135Z,97186.72
2023-05-23T01:09:11.141Z,97193.59
2023-05-23T01:13:25.232Z,97197.47
2023-05-23T01:17:36.672Z,97192.63
2023-05-23T01:21:42.243Z,97191.22
2023-05-23T01:26:05.389Z,97195.66
2023-05-23T01:30:13.032Z,97205.16
2023-05-23T01:34:20.361Z,97204.16
2023-05-23T01:38:24.945Z,97208.63
2023-05-23T01:42:28.943Z,97212.69
2023-05-23T01:46:35.811Z,97209.44
2023-05-23T01:50:39.195Z,97205.41
2023-05-23T01:54:44.624Z,97198.56
2023-05-23T01:58:48.169Z,97199.75
2023-05-23T02:02:53.064Z,97201.75
2023-05-23T02:06:56.162Z,97192.47
2023-05-23T02:10:59.595Z,97202.16
2023-05-23T02:15:02.996Z,97209.22
2023-05-23T02:19:08.168Z,97203.97
2023-05-23T02:23:11.562Z,97199.38
2023-05-23T02:27:15.289Z,97198.75
2023-05-23T02:31:18.476Z,97205.81
2023-05-23T02:35:23.976Z,97206.63
2023-05-23T02:39:26.973Z,97201.56
2023-05-23T02:43:30.368Z,97209.88
2023-05-23T02:47:33.731Z,97216.13
2023-05-23T02:51:38.981Z,97218.16
2023-05-23T02:55:43.224Z,97219.56
2023-05-23T02:59:46.842Z,97219.97
2023-05-23T03:03:50.149Z,97219.59
2023-05-23T03:07:55.381Z,97224.44
2023-05-23T03:11:58.466Z,97214.31
2023-05-23T03:16:02.204Z,97219.19
2023-05-23T03:20:10.067Z,97220.38
2023-05-23T03:24:14.913Z,97212.50
2023-05-23T03:28:18.013Z,97218.78
2023-05-23T03:32:21.287Z,97218.78
2023-05-23T03:36:26.507Z,97219.97
2023-05-23T03:40:31.049Z,97216.75
2023-05-23T03:44:34.274Z,97222.41
2023-05-23T03:48:37.877Z,97224.03
2023-05-23T03:52:41.088Z,97235.75
2023-05-23T03:56:46.196Z,97228.47
2023-05-23T04:00:49.833Z,97241.00
2023-05-23T04:04:54.285Z,97239.38
2023-05-23T04:08:57.746Z,97241.78
2023-05-23T04:13:02.777Z,97236.94
2023-05-23T04:17:06.377Z,97246.25
2023-05-23T04:21:09.349Z,97240.97
2023-05-23T04:25:12.761Z,97248.00
2023-05-23T04:29:18.007Z,97239.66
2023-05-23T04:33:21.859Z,97237.16
2023-05-23T04:37:26.556Z,97229.97
2023-05-23T04:41:29.928Z,97237.41
2023-05-23T04:45:34.913Z,97229.34
2023-05-23T04:49:39.934Z,97231.84
2023-05-23T04:53:44.119Z,97233.53
2023-05-23T04:57:47.317Z,97230.53
2023-05-23T05:01:51.884Z,97234.06
2023-05-23T05:05:57.684Z,97248.03
2023-05-23T05:10:01.372Z,97242.91
2023-05-23T05:14:06.132Z,97250.59
2023-05-23T05:18:12.279Z,97249.38
2023-05-23T05:22:15.967Z,97242.97
2023-05-23T05:26:20.228Z,97251.63
2023-05-23T05:30:24.890Z,97249.91
2023-05-23T05:34:30.067Z,97251.00
2023-05-23T05:38:33.378Z,97246.69
2023-05-23T05:42:36.441Z,97245.69
2023-05-23T05:46:39.678Z,97248.81
2023-05-23T05:50:45.740Z,97245.19
2023-05-23T05:54:50.171Z,97241.19
2023-05-23T05:58:54.553Z,97248.22
2023-05-23T06:02:58.017Z,97257.78
2023-05-23T06:07:02.788Z,97257.72
2023-05-23T06:11:06.551Z,97261.84
2023-05-23T06:15:10.783Z,97258.47
2023-05-23T06:19:14.183Z,97267.75
2023-05-23T06:23:18.809Z,97266.13
2023-05-23T06:27:22.203Z,97263.38
2023-05-23T06:31:25.507Z,97261.34
2023-05-23T06:35:28.993Z,97271.56
2023-05-23T06:39:33.598Z,97269.03
2023-05-23T06:43:37.285Z,97264.38
2023-05-23T06:47:44.440Z,97259.78
2023-05-23T06:51:47.743Z,97263.72
2023-05-23T06:55:52.312Z,97260.50
2023-05-23T06:59:55.787Z,97260.03
2023-05-23T07:03:59.219Z,97259.19
2023-05-23T07:08:02.858Z,97269.59
2023-05-23T07:12:08.287Z,97271.88
2023-05-23T07:16:11.442Z,97259.16
2023-05-23T07:20:14.810Z,97259.19
2023-05-23T07:24:18.273Z,97258.69
2023-05-23T07:28:23.262Z,97258.97
2023-05-23T07:32:26.568Z,97265.19
2023-05-23T07:36:35.060Z,97256.06
2023-05-23T07:40:40.890Z,97270.41
2023-05-23T07:44:46.091Z,97273.94
2023-05-23T07:48:49.154Z,97285.19
2023-05-23T07:52:52.779Z,97287.66
2023-05-23T07:56:56.277Z,97285.88
2023-05-23T08:01:01.309Z,97294.81
2023-05-23T08:05:04.989Z,97282.34
2023-05-23T08:09:08.131Z,97271.47
2023-05-23T08:13:11.955Z,97261.94
2023-05-23T08:17:16.983Z,97269.41
2023-05-23T08:21:20.778Z,97269.19
2023-05-23T08:25:24.868Z,97268.53
2023-05-23T08:29:28.611Z,97272.19
2023-05-23T08:33:33.197Z,97282.09
2023-05-23T08:37:36.810Z,97281.72
2023-05-23T08:41:41.127Z,97282.44
2023-05-23T08:45:45.197Z,97289.66
2023-05-23T08:49:50.910Z,97289.09
2023-05-23T08:53:56.789Z,97290.78
2023-05-23T08:58:00.824Z,97294.59
2023-05-23T09:02:10.224Z,97283.81
2023-05-23T09:06:15.098Z,97288.66
2023-05-23T09:10:20.753Z,97287.28
2023-05-23T09:14:23.761Z,97279.63
2023-05-23T09:18:28.476Z,97275.97
2023-05-23T09:22:33.062Z,97260.66
2023-05-23T09:26:37.106Z,97263.75
2023-05-23T09:30:41.773Z,97272.41
2023-05-23T09:34:57.790Z,97262.28
2023-05-23T09:39:05.490Z,97260.88
2023-05-23T09:43:09.648Z,97261.19
2023-05-23T09:47:13.124Z,97255.13
2023-05-23T09:51:20.205Z,97240.88
2023-05-23T09:55:25.001Z,97251.59
2023-05-23T09:59:31.062Z,97249.00
2023-05-23T10:03:38.875Z,97241.53
2023-05-23T10:07:44.234Z,97240.22
2023-05-23T10:12:38.373Z,97226.38
2023-05-23T10:16:51.742Z,97236.84
2023-05-23T10:20:59.255Z,97230.69
2023-05-23T10:25:02.962Z,97227.19
2023-05-23T10:29:09.144Z,97230.69
2023-05-23T10:33:17.542Z,97231.88
2023-05-23T10:37:29.069Z,97231.72
2023-05-23T10:41:40.244Z,97223.13
2023-05-23T10:45:45.860Z,97223.22
2023-05-23T10:49:54.783Z,97222.38
2023-05-23T10:53:57.997Z,97224.56
2023-05-23T10:58:17.467Z,97215.66
2023-05-23T11:02:28.570Z,97209.97
2023-05-23T11:06:34.373Z,97221.72
2023-05-23T11:10:57.682Z,97220.19
2023-05-23T11:15:00.924Z,97219.69
2023-05-23T11:19:26.496Z,97215.75
2023-05-23T11:23:42.265Z,97210.97
2023-05-23T11:27:48.498Z,97196.81
2023-05-23T11:31:51.868Z,97199.69
2023-05-23T11:35:57.252Z,97189.72
2023-05-23T11:40:02.453Z,97190.22
2023-05-23T11:44:12.948Z,97187.91
2023-05-23T11:48:18.121Z,97186.34
2023-05-23T11:52:23.112Z,97179.63
2023-05-23T11:56:26.787Z,97169.84
2023-05-23T12:00:31.782Z,97174.91
2023-05-23T12:04:36.766Z,97186.56
2023-05-23T12:08:41.662Z,97180.75
2023-05-23T12:12:46.205Z,97182.47
2023-05-23T12:16:49.853Z,97185.34
2023-05-23T12:20:53.652Z,97180.63
2023-05-23T12:24:58.828Z,97200.69
2023-05-23T12:29:04.156Z,97228.00
2023-05-23T12:33:10.646Z,97257.81
2023-05-23T12:37:19.844Z,97286.16
2023-05-23T12:41:25.296Z,97263.03
2023-05-23T12:45:33.983Z,97249.59
2023-05-23T12:49:42.740Z,97267.97
2023-05-23T12:53:47.012Z,97270.69
2023-05-23T12:57:52.232Z,97274.56
2023-05-23T13:01:56.977Z,97281.94
2023-05-23T13:06:00.727Z,97290.84
2023-05-23T13:10:05.384Z,97280.97
2023-05-23T13:14:10.441Z,97270.69
2023-05-23T13:18:14.943Z,97285.53
2023-05-23T13:22:18.458Z,97297.06
2023-05-23T13:26:22.056Z,97303.28
2023-05-23T13:30:28.797Z,97288.66
2023-05-23T13:34:32.366Z,97300.25
2023-05-23T13:38:35.857Z,97302.13
2023-05-23T13:42:39.296Z,97313.72
2023-05-23T13:46:44.584Z,97310.59
2023-05-23T13:50:48.323Z,97311.88
2023-05-23T13:54:52.433Z,97328.91
2023-05-23T13:58:58.060Z,97336.19
2023-05-23T14:03:03.272Z,97355.63
2023-05-23T14:07:06.998Z,97371.41
2023-05-23T14:11:12.126Z,97373.72
2023-05-23T14:15:15.357Z,97372.94
2023-05-23T14:19:20.650Z,97368.19
2023-05-23T14:23:24.131Z,97393.97
2023-05-23T14:27:28.705Z,97394.66
2023-05-23T14:31:32.022Z,97385.59
2023-05-23T14:35:37.037Z,97390.19
2023-05-23T14:39:41.439Z,97373.13
2023-05-23T14:43:45.817Z,97391.84
2023-05-23T14:47:48.947Z,97389.53
2023-05-23T14:51:53.962Z,97386.25
2023-05-23T14:55:57.778Z,97383.94
2023-05-23T15:00:03.215Z,97386.38
2023-05-23T15:04:09.843Z,97393.28
2023-05-23T15:08:16.912Z,97399.16
2023-05-23T15:12:21.052Z,97401.34
2023-05-23T15:16:24.361Z,97401.19
2023-05-23T15:20:27.340Z,97390.44
2023-05-23T15:24:33.719Z,97395.25
2023-05-23T15:28:37.908Z,97391.22
2023-05-23T15:32:41.654Z,97395.88
2023-05-23T15:36:44.654Z,97388.31
2023-05-23T15:40:49.392Z,97391.09
2023-05-23T15:44:53.922Z,97384.06
2023-05-23T15:49:07.188Z,97377.50
2023-05-23T15:53:13.543Z,97369.16
2023-05-23T15:57:18.334Z,97368.41
2023-05-23T16:01:21.509Z,97376.53
2023-05-23T16:05:25.030Z,97386.06
2023-05-23T16:09:28.358Z,97388.06
2023-05-23T16:13:33.104Z,97379.22
2023-05-23T16:17:36.385Z,97366.44
2023-05-23T16:21:39.760Z,97376.06
2023-05-23T16:25:43.477Z,97366.72
2023-05-23T16:29:48.216Z,97375.75
2023-05-23T16:33:51.966Z,97372.28
2023-05-23T16:37:55.271Z,97373.22
2023-05-23T16:42:00.547Z,97386.72
2023-05-23T16:46:06.161Z,97389.03
2023-05-23T16:50:10.251Z,97396.91
2023-05-23T16:54:13.759Z,97384.44
2023-05-23T16:58:19.391Z,97393.94
2023-05-23T17:02:26.273Z,97390.91
2023-05-23T17:06:29.884Z,97385.34
2023-05-23T17:10:34.021Z,97383.78
2023-05-23T17:14:38.621Z,97386.34
2023-05-23T17:18:43.504Z,97391.19
2023-05-23T17:22:46.900Z,97396.50
2023-05-23T17:26:50.033Z,97398.81
2023-05-23T17:30:53.686Z,97388.91
2023-05-23T17:34:58.425Z,97389.31
2023-05-23T17:39:01.450Z,97389.69
2023-05-23T17:43:05.873Z,97395.50
2023-05-23T17:47:08.983Z,97387.84
2023-05-23T17:51:14.177Z,97389.13
2023-05-23T17:55:17.450Z,97383.31
2023-05-23T17:59:23.756Z,97385.41
2023-05-23T18:03:27.897Z,97380.59
2023-05-23T18:07:33.005Z,97383.16
2023-05-23T18:11:36.333Z,97380.88
2023-05-23T18:15:39.666Z,97373.03
2023-05-23T18:19:43.077Z,97375.78
2023-05-23T18:23:49.144Z,97382.28
2023-05-23T18:27:53.128Z,97392.28
2023-05-23T18:31:56.565Z,97401.22
2023-05-23T18:35:59.795Z,97404.06
2023-05-23T18:40:04.747Z,97411.34
2023-05-23T18:44:07.971Z,97422.31
2023-05-23T18:48:11.707Z,97415.53
2023-05-23T18:52:14.963Z,97416.53
2023-05-23T18:56:19.916Z,97428.06
2023-05-23T19:00:33.131Z,97427.00
2023-05-23T19:04:39.016Z,97426.75
2023-05-23T19:08:48.674Z,97437.06
2023-05-23T19:13:02.350Z,97442.44
2023-05-23T19:17:06.915Z,97444.00
2023-05-23T19:21:10.808Z,97454.22
2023-05-23T19:25:18.044Z,97452.84
2023-05-23T19:29:24.009Z,97461.00
2023-05-23T19:33:28.192Z,97461.66
2023-05-23T19:37:39.665Z,97469.38
2023-05-23T19:41:43.375Z,97473.69
2023-05-23T19:45:53.133Z,97474.50
2023-05-23T19:49:56.854Z,97478.97
2023-05-23T19:54:00.689Z,97482.78
2023-05-23T19:58:06.314Z,97493.53
2023-05-23T20:02:18.783Z,97493.69
2023-05-23T20:06:22.445Z,97501.78
2023-05-23T20:10:27.676Z,97520.41
2023-05-23T20:14:32.712Z,97531.56
2023-05-23T20:18:40.247Z,97554.66
2023-05-23T20:22:43.906Z,97552.81
2023-05-23T20:26:56.007Z,97558.91
2023-05-23T20:31:03.068Z,97550.19
2023-05-23T20:35:09.962Z,97549.75
2023-05-23T20:39:17.051Z,97549.75
2023-05-23T20:43:22.533Z,97555.44
2023-05-23T20:47:26.355Z,97557.66
2023-05-23T20:51:31.011Z,97565.56
2023-05-23T20:55:36.010Z,97574.28
2023-05-23T20:59:40.125Z,97579.34
2023-05-23T21:03:43.440Z,97576.91
2023-05-23T21:07:48.500Z,97577.75
2023-05-23T21:11:51.443Z,97583.44
2023-05-23T21:15:54.804Z,97586.69
2023-05-23T21:19:59.231Z,97597.09
2023-05-23T21:24:05.267Z,97609.66
2023-05-23T21:28:08.220Z,97609.88
2023-05-23T21:32:11.882Z,97605.22
2023-05-23T21:36:16.929Z,97604.22
2023-05-23T21:40:21.678Z,97607.28
2023-05-23T21:44:25.013Z,97610.91
2023-05-23T21:48:28.266Z,97600.56
2023-05-23T21:52:33.698Z,97608.69
2023-05-23T21:56:38.475Z,97617.63
2023-05-23T22:00:43.623Z,97615.63
2023-05-23T22:09:11.706Z,97618.88
2023-05-23T22:13:18.193Z,97619.69
2023-05-23T22:17:22.984Z,97613.38
2023-05-23T22:21:26.971Z,97622.72
2023-05-23T22:25:33.033Z,97617.25
2023-05-23T22:29:40.160Z,97620.47
2023-05-23T22:33:43.446Z,97621.28
2023-05-23T22:37:47.475Z,97622.91
2023-05-23T22:41:51.162Z,97622.50
2023-05-23T22:45:55.759Z,97622.50
2023-05-23T22:50:00.036Z,97622.50
2023-05-23T22:54:03.434Z,97625.13
2023-05-23T22:58:08.204Z,97622.50
2023-05-23T23:02:13.183Z,97635.47
2023-05-23T23:06:17.024Z,97616.41
2023-05-23T23:10:20.580Z,97621.09
2023-05-23T23:14:25.774Z,97624.31
2023-05-23T23:18:30.804Z,97628.19
2023-05-23T23:22:34.664Z,97623.53
2023-05-23T23:26:38.026Z,97629.00
2023-05-23T23:30:43.920Z,97618.88
2023-05-23T23:34:48.838Z,97620.09
2023-05-23T23:38:52.659Z,97618.09
2023-05-23T23:42:56.027Z,97623.38
2023-05-23T23:46:59.252Z,97627.44
2023-05-23T23:51:04.025Z,97626.00
2023-05-23T23:55:08.122Z,97629.91
2023-05-23T23:59:11.956Z,97621.00
